Time;durP1;ratioP1;P1;durP2;ratioP2;P2;SDS_P1;SDS_P2;PMS_P1;PMS_P2;Temp;Humidity;BMP_temperature;BMP_pressure;BME280_temperature;BME280_humidity;BME280_pressure;Samples;Min_cycle;Max_cycle;Signal;HPM_P1;HPM_P2
2021/05/07 00:00:54;;;;;;;19.77;14.80;;;5.10;1.00;;;;;;5090129;27;20652;-70
2021/05/07 00:03:20;;;;;;;24.47;16.93;;;5.00;1.00;;;;;;5102855;27;20760;-70
2021/05/07 00:05:54;;;;;;;21.53;15.70;;;5.00;1.00;;;;;;5102498;27;22041;-71
2021/05/07 00:08:34;;;;;;;18.17;13.50;;;5.00;1.00;;;;;;5103992;27;20807;-71
2021/05/07 00:11:09;;;;;;;17.17;12.40;;;5.00;1.00;;;;;;5104249;27;21352;-71
2021/05/07 00:13:35;;;;;;;16.20;12.50;;;4.90;1.00;;;;;;5106915;27;20441;-70
2021/05/07 00:16:01;;;;;;;15.37;12.40;;;4.90;12.10;;;;;;5104576;27;20442;-71
2021/05/07 00:18:27;;;;;;;14.83;12.60;;;4.80;27.80;;;;;;5102689;27;20452;-71
2021/05/07 00:20:52;;;;;;;14.73;10.27;;;4.90;13.60;;;;;;5100291;27;20215;-71
2021/05/07 00:23:18;;;;;;;13.27;10.23;;;4.80;1.00;;;;;;5087922;27;20195;-71
2021/05/07 00:25:46;;;;;;;12.97;10.27;;;4.60;1.00;;;;;;5089229;27;20445;-71
2021/05/07 00:28:14;;;;;;;11.07;9.27;;;4.50;1.00;;;;;;5107621;27;20455;-72
2021/05/07 00:30:40;;;;;;;12.03;8.87;;;4.50;1.00;;;;;;5091371;27;20446;-71
2021/05/07 00:33:07;;;;;;;12.47;9.93;;;4.40;1.00;;;;;;5104247;27;20506;-71
2021/05/07 00:35:33;;;;;;;12.53;10.27;;;4.30;1.00;;;;;;5105544;27;20484;-72
2021/05/07 00:37:59;;;;;;;11.90;9.53;;;4.30;1.00;;;;;;5104524;27;20431;-71
2021/05/07 00:40:25;;;;;;;12.30;9.10;;;4.30;1.00;;;;;;5092755;27;20908;-71
2021/05/07 00:42:51;;;;;;;11.60;9.10;;;4.30;1.00;;;;;;5112177;27;20491;-71
2021/05/07 00:45:18;;;;;;;12.80;9.83;;;4.30;1.00;;;;;;5109372;27;20470;-72
2021/05/07 00:47:55;;;;;;;11.63;9.83;;;4.30;1.00;;;;;;5109011;27;20568;-71
2021/05/07 00:50:23;;;;;;;10.90;9.10;;;4.30;1.00;;;;;;5102834;27;20470;-71
2021/05/07 00:52:49;;;;;;;13.20;9.77;;;4.30;1.00;;;;;;5104363;27;20852;-71
2021/05/07 00:55:14;;;;;;;14.00;10.50;;;4.40;1.00;;;;;;5105995;27;20529;-71
2021/05/07 00:57:41;;;;;;;14.40;10.77;;;4.50;1.00;;;;;;5073779;27;20212;-71
2021/05/07 01:00:09;;;;;;;13.87;9.93;;;4.40;1.00;;;;;;5087981;27;20525;-72
2021/05/07 01:02:35;;;;;;;13.90;10.03;;;4.50;1.00;;;;;;5104579;27;20470;-71
2021/05/07 01:05:04;;;;;;;17.20;10.50;;;4.60;1.00;;;;;;5085289;27;20530;-71
2021/05/07 01:07:29;;;;;;;20.63;11.10;;;4.60;1.00;;;;;;5104965;27;21045;-71
2021/05/07 01:09:56;;;;;;;16.57;11.53;;;4.60;1.00;;;;;;5088711;27;20494;-71
2021/05/07 01:12:22;;;;;;;13.50;10.90;;;4.70;29.80;;;;;;5108701;27;20482;-71
2021/05/07 01:15:14;;;;;;;15.73;12.20;;;4.80;41.10;;;;;;5087834;27;20473;-70
2021/05/07 01:17:47;;;;;;;17.67;12.93;;;4.80;64.50;;;;;;5086095;27;20844;-71
2021/05/07 01:20:19;;;;;;;16.27;12.90;;;4.80;30.10;;;;;;5086400;27;20572;-72
2021/05/07 01:22:48;;;;;;;17.60;13.50;;;4.80;36.50;;;;;;5088275;27;20962;-71
2021/05/07 01:25:17;;;;;;;19.57;14.30;;;4.80;48.70;;;;;;5107110;27;20474;-71
2021/05/07 01:27:45;;;;;;;17.20;12.13;;;4.80;24.70;;;;;;5104592;27;20449;-71
2021/05/07 01:30:18;;;;;;;18.43;13.27;;;4.70;49.90;;;;;;5102889;27;20504;-71
2021/05/07 01:32:45;;;;;;;19.30;15.00;;;4.70;53.00;;;;;;5103517;27;20443;-71
2021/05/07 01:35:14;;;;;;;19.67;14.17;;;4.80;92.20;;;;;;5086997;27;20488;-71
2021/05/07 01:37:46;;;;;;;19.70;13.90;;;4.80;43.80;;;;;;5076885;27;20441;-71
2021/05/07 01:40:12;;;;;;;18.90;13.90;;;4.70;43.50;;;;;;5103023;27;20483;-71
2021/05/07 01:42:39;;;;;;;18.07;13.23;;;4.70;54.90;;;;;;5090249;27;20462;-72
2021/05/07 01:45:07;;;;;;;21.73;14.13;;;4.70;61.50;;;;;;5107907;27;20767;-71
2021/05/07 01:47:33;;;;;;;17.07;13.07;;;4.80;81.70;;;;;;5108217;27;20480;-71
2021/05/07 01:49:59;;;;;;;19.63;14.57;;;4.80;99.90;;;;;;5107108;27;21058;-71
2021/05/07 01:52:25;;;;;;;20.97;15.20;;;4.80;99.90;;;;;;5090758;27;20568;-72
2021/05/07 01:54:51;;;;;;;19.43;14.40;;;4.70;99.90;;;;;;5086845;27;20465;-71
2021/05/07 01:57:17;;;;;;;21.77;14.97;;;4.70;99.90;;;;;;5087266;27;20514;-71
2021/05/07 01:59:43;;;;;;;20.13;14.30;;;4.70;99.90;;;;;;5089796;27;20437;-71
2021/05/07 02:02:08;;;;;;;20.00;15.37;;;4.70;95.80;;;;;;5076894;27;20445;-71
2021/05/07 02:04:34;;;;;;;18.40;14.40;;;4.60;99.90;;;;;;5086283;27;20562;-71
2021/05/07 02:07:01;;;;;;;21.53;15.30;;;4.70;92.40;;;;;;5084880;27;20438;-71
2021/05/07 02:09:27;;;;;;;21.67;14.90;;;4.70;99.90;;;;;;5085514;27;20497;-71
2021/05/07 02:11:53;;;;;;;25.20;16.60;;;4.70;99.90;;;;;;5089726;27;20929;-71
2021/05/07 02:14:18;;;;;;;20.70;15.57;;;4.60;99.90;;;;;;5092084;27;20468;-71
2021/05/07 02:16:44;;;;;;;20.53;15.83;;;4.60;99.90;;;;;;5108826;27;20177;-71
2021/05/07 02:19:10;;;;;;;20.10;16.00;;;4.60;99.90;;;;;;5105833;27;20181;-71
2021/05/07 02:21:36;;;;;;;24.93;17.40;;;4.60;99.90;;;;;;5086265;27;20215;-71
2021/05/07 02:24:02;;;;;;;21.80;15.77;;;4.60;99.90;;;;;;5086612;27;20185;-71
2021/05/07 02:26:28;;;;;;;24.10;16.33;;;4.60;94.60;;;;;;5087203;27;20516;-71
2021/05/07 02:29:00;;;;;;;23.23;17.13;;;4.50;78.00;;;;;;5087709;27;20529;-72
2021/05/07 02:31:28;;;;;;;22.60;14.00;;;4.50;96.60;;;;;;5087266;27;20538;-71
2021/05/07 02:33:54;;;;;;;16.60;13.57;;;4.50;65.30;;;;;;5086961;27;20959;-72
2021/05/07 02:36:19;;;;;;;23.23;15.57;;;4.50;45.30;;;;;;5099934;27;20477;-71
2021/05/07 02:38:45;;;;;;;20.47;15.60;;;4.40;32.20;;;;;;5103294;27;20181;-71
2021/05/07 02:41:11;;;;;;;23.00;15.27;;;4.50;57.50;;;;;;5085903;27;20288;-71
2021/05/07 02:43:39;;;;;;;21.90;15.63;;;4.50;46.30;;;;;;5088087;27;20292;-71
2021/05/07 02:46:07;;;;;;;21.27;15.57;;;4.50;98.80;;;;;;5085556;27;20504;-72
2021/05/07 02:48:33;;;;;;;22.43;16.40;;;4.60;99.90;;;;;;5106566;27;20446;-71
2021/05/07 02:50:59;;;;;;;23.10;17.27;;;4.60;99.90;;;;;;5099802;27;20205;-71
2021/05/07 02:53:26;;;;;;;22.40;15.53;;;4.70;99.90;;;;;;5099182;27;20450;-71
2021/05/07 02:55:52;;;;;;;21.07;14.77;;;4.60;99.90;;;;;;5079144;27;20215;-71
2021/05/07 02:58:18;;;;;;;24.60;17.20;;;4.60;99.90;;;;;;5082296;27;20442;-71
2021/05/07 03:00:43;;;;;;;24.77;17.20;;;4.60;99.90;;;;;;5078313;27;20438;-71
2021/05/07 03:03:09;;;;;;;22.13;16.20;;;4.50;99.90;;;;;;5099908;27;20230;-71
2021/05/07 03:05:35;;;;;;;32.00;17.93;;;4.50;99.90;;;;;;5104433;27;20197;-71
2021/05/07 03:08:00;;;;;;;24.57;16.83;;;4.60;99.90;;;;;;5108438;27;20197;-70
2021/05/07 03:10:26;;;;;;;23.67;18.47;;;4.60;99.90;;;;;;5104761;27;20693;-71
2021/05/07 03:12:52;;;;;;;24.97;18.50;;;4.50;99.90;;;;;;5102793;27;20207;-70
2021/05/07 03:15:18;;;;;;;27.10;17.97;;;4.50;99.90;;;;;;5107735;27;20850;-70
2021/05/07 03:17:44;;;;;;;23.67;17.90;;;4.60;99.90;;;;;;5099447;27;20190;-70
2021/05/07 03:20:12;;;;;;;30.80;19.10;;;4.60;99.90;;;;;;5102530;27;20277;-70
2021/05/07 03:22:37;;;;;;;31.63;19.50;;;4.50;99.90;;;;;;5101828;27;20441;-70
2021/05/07 03:25:03;;;;;;;25.67;18.10;;;4.50;99.90;;;;;;5103590;27;20454;-70
2021/05/07 03:27:29;;;;;;;29.57;18.70;;;4.50;99.90;;;;;;5101266;27;20184;-70
2021/05/07 03:29:54;;;;;;;31.40;19.63;;;4.40;99.90;;;;;;5105861;27;20456;-70
2021/05/07 03:32:20;;;;;;;26.90;19.37;;;4.40;99.90;;;;;;5102053;27;20188;-70
2021/05/07 03:34:49;;;;;;;26.73;19.03;;;4.40;99.90;;;;;;5102827;27;20213;-70
2021/05/07 03:37:15;;;;;;;33.87;20.47;;;4.40;99.90;;;;;;5102325;27;20188;-70
2021/05/07 03:39:42;;;;;;;27.83;20.00;;;4.40;99.90;;;;;;5101750;27;20445;-70
2021/05/07 03:42:07;;;;;;;26.67;19.37;;;4.30;99.90;;;;;;5102684;27;20470;-70
2021/05/07 03:44:33;;;;;;;28.60;19.87;;;4.40;99.90;;;;;;5102981;27;20569;-70
2021/05/07 03:47:01;;;;;;;28.20;18.97;;;4.40;99.90;;;;;;5087124;27;20501;-70
2021/05/07 03:49:28;;;;;;;25.17;18.27;;;4.40;99.90;;;;;;5105753;27;20271;-70
2021/05/07 03:51:53;;;;;;;30.10;20.60;;;4.30;1.00;;;;;;5099669;27;20477;-70
2021/05/07 03:54:19;;;;;;;31.23;21.40;;;4.40;1.00;;;;;;5102696;27;20820;-70
2021/05/07 03:56:45;;;;;;;28.90;20.20;;;4.40;1.00;;;;;;5103600;27;20180;-71
2021/05/07 03:59:10;;;;;;;30.63;21.50;;;4.40;1.00;;;;;;5105918;27;20192;-70
2021/05/07 04:01:36;;;;;;;34.50;21.43;;;4.40;1.00;;;;;;5101549;27;20177;-70
2021/05/07 04:04:05;;;;;;;35.13;21.23;;;4.40;1.00;;;;;;5098296;27;20181;-70
2021/05/07 04:06:31;;;;;;;31.20;21.67;;;4.40;1.00;;;;;;5101760;27;20495;-70
2021/05/07 04:09:13;;;;;;;32.03;23.37;;;4.50;1.00;;;;;;5103899;27;21087;-70
2021/05/07 04:14:04;;;;;;;30.90;22.63;;;4.50;1.00;;;;;;5105267;27;20466;-70
2021/05/07 04:16:30;;;;;;;34.67;23.03;;;4.50;1.00;;;;;;5103156;27;20181;-70
2021/05/07 04:18:56;;;;;;;29.70;21.57;;;4.50;1.00;;;;;;5098067;27;20649;-70
2021/05/07 04:21:23;;;;;;;33.80;23.57;;;4.50;18.50;;;;;;5104824;27;20309;-70
2021/05/07 04:23:49;;;;;;;32.30;21.90;;;4.50;1.00;;;;;;5102278;27;24871;-71
2021/05/07 04:26:15;;;;;;;35.07;22.20;;;4.40;1.00;;;;;;5105166;27;20453;-70
2021/05/07 04:28:40;;;;;;;34.90;23.60;;;4.40;99.90;;;;;;5105019;27;20504;-70
2021/05/07 04:31:07;;;;;;;29.47;21.13;;;4.40;99.90;;;;;;5103725;27;20776;-70
2021/05/07 04:33:32;;;;;;;33.03;23.07;;;4.40;99.90;;;;;;5097938;27;20203;-70
2021/05/07 04:35:58;;;;;;;33.97;22.60;;;4.40;99.90;;;;;;5098706;27;20555;-72
2021/05/07 04:38:24;;;;;;;36.27;24.00;;;4.40;99.90;;;;;;5106856;27;20210;-72
2021/05/07 04:40:49;;;;;;;36.43;23.00;;;4.40;99.90;;;;;;5102266;27;20272;-70
2021/05/07 04:43:15;;;;;;;34.77;23.53;;;4.40;99.90;;;;;;5103052;27;20220;-70
2021/05/07 04:45:41;;;;;;;36.43;23.00;;;4.40;99.90;;;;;;5105812;27;20222;-70
2021/05/07 04:48:14;;;;;;;31.57;21.80;;;4.40;99.90;;;;;;5092866;27;21158;-70
2021/05/07 04:50:40;;;;;;;33.40;23.33;;;4.20;99.90;;;;;;5103932;27;20228;-71
2021/05/07 04:53:06;;;;;;;30.00;21.47;;;4.20;99.90;;;;;;5106766;27;20439;-70
2021/05/07 04:55:32;;;;;;;35.33;22.33;;;4.30;99.90;;;;;;5106902;27;21076;-72
2021/05/07 04:57:58;;;;;;;30.67;22.40;;;4.30;99.90;;;;;;5107692;27;20598;-71
2021/05/07 05:00:24;;;;;;;33.00;21.53;;;4.40;99.90;;;;;;5109112;27;20801;-71
2021/05/07 05:02:49;;;;;;;27.93;19.57;;;4.50;99.90;;;;;;5106383;27;20491;-71
2021/05/07 05:05:17;;;;;;;29.00;20.87;;;4.50;99.90;;;;;;5107732;27;20184;-72
2021/05/07 05:07:50;;;;;;;29.50;21.37;;;4.50;99.90;;;;;;5096346;27;20614;-71
2021/05/07 05:10:16;;;;;;;29.97;20.87;;;4.80;99.90;;;;;;5081627;27;20852;-71
2021/05/07 05:12:42;;;;;;;28.33;20.80;;;4.80;99.90;;;;;;5112195;27;20453;-71
2021/05/07 05:15:09;;;;;;;32.70;21.63;;;4.80;99.90;;;;;;5098009;27;20473;-71
2021/05/07 05:17:35;;;;;;;31.67;22.63;;;4.90;99.90;;;;;;5111656;27;20455;-71
2021/05/07 05:20:02;;;;;;;33.93;22.40;;;5.00;99.90;;;;;;5109717;27;20514;-71
2021/05/07 05:22:28;;;;;;;29.87;20.67;;;4.90;99.90;;;;;;5108026;27;20223;-71
2021/05/07 05:24:53;;;;;;;28.67;19.73;;;5.00;99.90;;;;;;5107839;27;21248;-71
2021/05/07 05:27:19;;;;;;;34.20;21.83;;;5.00;99.90;;;;;;5104419;27;25054;-70
2021/05/07 05:29:44;;;;;;;33.10;21.97;;;5.00;99.90;;;;;;5089361;27;20898;-71
2021/05/07 05:32:12;;;;;;;37.50;21.50;;;4.90;99.90;;;;;;5087747;27;20265;-70
2021/05/07 05:34:38;;;;;;;28.27;21.27;;;5.00;99.90;;;;;;5108423;27;20294;-71
2021/05/07 05:37:04;;;;;;;29.30;21.23;;;5.00;99.90;;;;;;5091534;27;20464;-71
2021/05/07 05:39:30;;;;;;;30.80;20.40;;;5.00;99.90;;;;;;5105505;27;20478;-71
2021/05/07 05:41:59;;;;;;;36.07;21.90;;;5.10;99.90;;;;;;5109072;27;20245;-72
2021/05/07 05:44:25;;;;;;;38.30;22.80;;;5.00;99.90;;;;;;5107776;27;20457;-71
2021/05/07 05:46:51;;;;;;;32.80;22.40;;;5.10;99.90;;;;;;5107289;27;20494;-71
2021/05/07 05:49:17;;;;;;;31.53;19.43;;;5.20;99.90;;;;;;5111287;27;20447;-71
2021/05/07 05:51:43;;;;;;;34.20;20.37;;;5.20;99.90;;;;;;5107093;27;20320;-71
2021/05/07 05:54:08;;;;;;;31.40;21.80;;;5.30;99.90;;;;;;5112687;27;20210;-71
2021/05/07 05:56:34;;;;;;;33.60;23.93;;;5.30;99.90;;;;;;5107343;27;20655;-71
2021/05/07 05:59:00;;;;;;;36.07;20.97;;;5.30;99.90;;;;;;5107811;27;20194;-71
2021/05/07 06:01:26;;;;;;;32.63;19.77;;;5.40;99.90;;;;;;5106996;27;20438;-71
2021/05/07 06:03:51;;;;;;;30.07;19.80;;;5.40;99.90;;;;;;5095639;27;20185;-71
2021/05/07 06:06:17;;;;;;;31.37;20.90;;;5.40;99.90;;;;;;5106590;27;20188;-71
2021/05/07 06:08:43;;;;;;;28.87;20.53;;;5.40;99.90;;;;;;5092990;27;20631;-71
2021/05/07 06:11:08;;;;;;;35.33;20.80;;;5.50;99.90;;;;;;5111103;27;20181;-71
2021/05/07 06:13:34;;;;;;;34.90;21.20;;;5.30;99.90;;;;;;5093116;27;20251;-71
2021/05/07 06:16:00;;;;;;;33.70;19.10;;;5.30;99.90;;;;;;5110347;27;20995;-71
2021/05/07 06:18:26;;;;;;;38.80;21.03;;;5.30;99.90;;;;;;5109952;27;20553;-70
2021/05/07 06:20:52;;;;;;;35.17;23.50;;;5.20;99.90;;;;;;5110548;27;20204;-71
2021/05/07 06:23:17;;;;;;;30.73;20.57;;;5.30;99.90;;;;;;5107022;27;20173;-71
2021/05/07 06:25:43;;;;;;;32.83;20.63;;;5.30;99.90;;;;;;5108267;27;20180;-70
2021/05/07 06:28:09;;;;;;;34.47;22.00;;;5.30;99.90;;;;;;5109425;27;20725;-71
2021/05/07 06:30:34;;;;;;;31.27;21.23;;;5.20;99.90;;;;;;5107849;27;20197;-70
2021/05/07 06:33:00;;;;;;;45.33;21.70;;;5.20;99.90;;;;;;5105880;27;20216;-70
2021/05/07 06:35:26;;;;;;;35.60;23.43;;;5.30;99.90;;;;;;5105346;27;20204;-71
2021/05/07 06:37:51;;;;;;;34.37;23.07;;;5.30;99.90;;;;;;5109548;27;20592;-70
2021/05/07 06:40:17;;;;;;;36.27;22.27;;;5.30;99.90;;;;;;5106413;27;20184;-70
2021/05/07 06:42:46;;;;;;;32.30;22.23;;;5.30;99.90;;;;;;5104574;27;20224;-70
2021/05/07 06:45:12;;;;;;;29.10;15.40;;;5.40;99.90;;;;;;5102356;27;20972;-71
2021/05/07 06:47:38;;;;;;;14.10;10.27;;;5.20;99.90;;;;;;5103653;27;20450;-70
2021/05/07 06:50:05;;;;;;;15.40;8.43;;;5.10;89.20;;;;;;5102216;27;20545;-69
2021/05/07 06:52:32;;;;;;;21.10;14.13;;;5.00;41.10;;;;;;5101679;27;20596;-70
2021/05/07 06:54:58;;;;;;;21.87;12.60;;;4.90;1.00;;;;;;5105836;27;20512;-69
2021/05/07 06:57:24;;;;;;;15.53;9.13;;;4.90;17.20;;;;;;5104594;27;21053;-70
2021/05/07 06:59:50;;;;;;;17.93;11.47;;;4.80;2.90;;;;;;5105904;27;20450;-69
2021/05/07 07:02:17;;;;;;;15.87;10.53;;;4.70;1.00;;;;;;5101542;27;20970;-69
2021/05/07 07:04:45;;;;;;;14.23;10.00;;;4.80;3.60;;;;;;5104441;27;20450;-69
2021/05/07 07:07:11;;;;;;;13.10;9.63;;;4.70;1.00;;;;;;5105607;27;20806;-69
2021/05/07 07:09:36;;;;;;;16.27;10.60;;;4.50;1.00;;;;;;5086353;27;20449;-69
2021/05/07 07:12:02;;;;;;;12.70;10.37;;;4.40;1.00;;;;;;5105833;27;20271;-70
2021/05/07 07:14:28;;;;;;;11.07;8.70;;;4.40;1.00;;;;;;5105170;27;20888;-69
2021/05/07 07:16:53;;;;;;;8.63;6.87;;;4.50;1.00;;;;;;5102608;27;20193;-69
2021/05/07 07:19:19;;;;;;;10.87;6.70;;;4.60;1.00;;;;;;5105548;27;20224;-69
2021/05/07 07:21:45;;;;;;;7.27;6.53;;;4.60;1.00;;;;;;5103042;27;20188;-69
2021/05/07 07:24:10;;;;;;;6.53;5.90;;;4.60;1.00;;;;;;5105614;27;20185;-69
2021/05/07 07:26:36;;;;;;;8.70;6.10;;;4.40;1.00;;;;;;5103007;27;20184;-69
2021/05/07 07:29:02;;;;;;;6.90;5.20;;;4.40;1.00;;;;;;5104392;27;20240;-69
2021/05/07 07:31:28;;;;;;;9.13;6.17;;;4.50;1.00;;;;;;5107910;27;20185;-69
2021/05/07 07:33:53;;;;;;;7.80;5.67;;;4.40;1.00;;;;;;5105131;27;20442;-69
2021/05/07 07:36:19;;;;;;;5.73;4.70;;;4.40;1.00;;;;;;5100117;27;20295;-69
2021/05/07 07:38:45;;;;;;;8.07;5.07;;;4.30;1.00;;;;;;5103926;27;20192;-69
2021/05/07 07:41:10;;;;;;;5.93;4.67;;;4.40;1.00;;;;;;5105748;27;20175;-69
2021/05/07 07:43:36;;;;;;;7.47;6.13;;;4.40;1.00;;;;;;5104422;27;20185;-69
2021/05/07 07:46:02;;;;;;;6.23;4.67;;;4.40;1.00;;;;;;5101991;27;20216;-69
2021/05/07 07:48:27;;;;;;;7.23;5.13;;;4.40;1.00;;;;;;5101731;27;20187;-69
2021/05/07 07:50:54;;;;;;;7.47;6.10;;;4.50;1.00;;;;;;5103587;27;20663;-68
2021/05/07 07:53:20;;;;;;;11.30;5.83;;;4.50;1.00;;;;;;5095427;27;28206;-69
2021/05/07 07:55:45;;;;;;;11.70;6.00;;;4.50;1.00;;;;;;5094244;27;20473;-69
2021/05/07 07:58:11;;;;;;;7.33;6.03;;;4.50;8.70;;;;;;5098859;27;20454;-69
2021/05/07 08:00:37;;;;;;;11.10;6.37;;;4.50;28.60;;;;;;5100269;27;20438;-69
2021/05/07 08:03:03;;;;;;;9.50;5.97;;;4.60;31.00;;;;;;5086362;27;20234;-68
2021/05/07 08:05:28;;;;;;;8.83;6.17;;;4.60;19.50;;;;;;5104730;27;20249;-69
2021/05/07 08:07:58;;;;;;;6.60;6.00;;;4.70;11.00;;;;;;5107867;27;20460;-69
2021/05/07 08:10:24;;;;;;;5.77;5.13;;;4.70;1.00;;;;;;5102620;27;20192;-70
2021/05/07 08:12:50;;;;;;;5.83;5.27;;;4.70;1.00;;;;;;5101236;27;20542;-70
2021/05/07 08:15:16;;;;;;;7.17;5.50;;;4.80;1.00;;;;;;5103473;27;20991;-69
2021/05/07 08:17:41;;;;;;;7.20;6.47;;;4.80;1.00;;;;;;5105240;27;20180;-69
2021/05/07 08:20:08;;;;;;;10.40;4.63;;;4.90;1.00;;;;;;5084523;28;20196;-69
2021/05/07 08:22:34;;;;;;;6.70;4.70;;;4.90;1.00;;;;;;5096806;27;20195;-70
2021/05/07 08:25:00;;;;;;;5.37;4.10;;;5.00;1.00;;;;;;5091147;27;20794;-69
2021/05/07 08:27:26;;;;;;;6.27;4.67;;;4.90;1.00;;;;;;5072460;27;20219;-69
2021/05/07 08:29:54;;;;;;;6.33;5.73;;;5.00;1.00;;;;;;5092811;27;20447;-70
2021/05/07 08:32:19;;;;;;;6.03;5.33;;;5.30;1.00;;;;;;5095742;27;20445;-69
2021/05/07 08:34:45;;;;;;;5.93;5.33;;;5.70;1.00;;;;;;5077932;28;20511;-70
2021/05/07 08:37:12;;;;;;;9.70;5.37;;;5.80;1.00;;;;;;5096077;27;20201;-70
2021/05/07 08:39:38;;;;;;;4.57;4.17;;;5.80;1.00;;;;;;5096205;27;20181;-70
2021/05/07 08:42:06;;;;;;;5.87;5.27;;;6.10;1.00;;;;;;5096062;27;20550;-70
2021/05/07 08:44:32;;;;;;;7.90;6.13;;;6.10;1.00;;;;;;5088833;27;20526;-70
2021/05/07 08:46:59;;;;;;;5.33;4.83;;;6.30;1.00;;;;;;5098846;27;20451;-70
2021/05/07 08:49:25;;;;;;;9.80;5.17;;;6.20;1.00;;;;;;5099389;27;20465;-70
2021/05/07 08:51:51;;;;;;;5.40;4.90;;;6.20;1.00;;;;;;5097960;27;20460;-70
2021/05/07 08:54:17;;;;;;;5.70;5.20;;;6.20;1.00;;;;;;5102009;27;20990;-70
2021/05/07 08:56:45;;;;;;;5.10;4.60;;;6.40;1.00;;;;;;5082173;27;20645;-70
2021/05/07 08:59:11;;;;;;;6.63;5.90;;;6.20;1.00;;;;;;5112881;27;20203;-70
2021/05/07 09:01:49;;;;;;;6.53;5.50;;;6.10;1.00;;;;;;5107945;27;20533;-70
2021/05/07 09:04:17;;;;;;;5.73;5.10;;;6.30;1.00;;;;;;5108103;27;20958;-70
2021/05/07 09:06:50;;;;;;;7.93;5.43;;;6.60;1.00;;;;;;5100167;27;20453;-71
2021/05/07 09:09:28;;;;;;;5.70;4.70;;;6.80;1.00;;;;;;5098925;27;21027;-70
2021/05/07 09:11:55;;;;;;;4.73;4.23;;;7.10;1.00;;;;;;5109229;27;20530;-70
2021/05/07 09:14:22;;;;;;;4.50;3.87;;;7.00;1.00;;;;;;5107573;27;21046;-71
2021/05/07 09:16:53;;;;;;;4.30;3.90;;;7.10;1.00;;;;;;5106257;27;20447;-71
2021/05/07 09:19:21;;;;;;;4.70;3.67;;;7.20;1.00;;;;;;5104904;27;20479;-70
2021/05/07 09:21:46;;;;;;;4.60;4.00;;;7.30;1.00;;;;;;5108069;27;20984;-70
2021/05/07 09:24:12;;;;;;;6.53;4.40;;;7.10;1.00;;;;;;5102291;27;21480;-70
2021/05/07 09:26:50;;;;;;;5.10;4.60;;;7.00;1.00;;;;;;5106657;27;20554;-71
2021/05/07 09:29:28;;;;;;;6.43;4.10;;;7.20;1.00;;;;;;5103220;27;20839;-71
2021/05/07 09:31:54;;;;;;;5.20;3.97;;;7.20;1.00;;;;;;5107055;27;20439;-71
2021/05/07 09:34:22;;;;;;;5.70;3.73;;;7.10;1.00;;;;;;5106388;27;20607;-71
2021/05/07 09:36:49;;;;;;;5.60;3.97;;;6.90;1.00;;;;;;5086204;27;20464;-71
2021/05/07 09:39:26;;;;;;;5.27;4.80;;;7.00;1.00;;;;;;5107731;27;21770;-71
2021/05/07 09:41:53;;;;;;;4.03;3.57;;;7.30;1.00;;;;;;5108598;27;20475;-70
2021/05/07 09:44:26;;;;;;;3.80;3.33;;;7.50;1.00;;;;;;5109089;27;20450;-71
2021/05/07 09:46:53;;;;;;;4.13;3.47;;;7.50;1.00;;;;;;5110850;27;20511;-71
2021/05/07 09:49:26;;;;;;;4.67;4.20;;;7.30;1.00;;;;;;5086233;27;20437;-70
2021/05/07 09:51:53;;;;;;;5.43;4.33;;;7.70;1.00;;;;;;5106129;27;20462;-71
2021/05/07 09:54:19;;;;;;;4.13;3.73;;;7.70;1.00;;;;;;5098925;27;20508;-71
2021/05/07 09:56:45;;;;;;;5.97;4.83;;;7.80;1.00;;;;;;5105475;27;20503;-71
2021/05/07 09:59:12;;;;;;;4.07;3.67;;;8.10;1.00;;;;;;5107853;27;20447;-70
2021/05/07 10:01:38;;;;;;;4.63;4.23;;;8.40;1.00;;;;;;5106822;27;20666;-71
2021/05/07 10:04:05;;;;;;;7.20;4.03;;;8.60;1.00;;;;;;5108323;27;20541;-70
2021/05/07 10:06:32;;;;;;;4.20;3.80;;;8.50;1.00;;;;;;5106408;27;20462;-71
2021/05/07 10:08:59;;;;;;;6.63;4.07;;;8.40;1.00;;;;;;5107386;27;20951;-71
2021/05/07 10:11:33;;;;;;;4.50;2.97;;;8.40;1.00;;;;;;5103010;27;20477;-71
2021/05/07 10:14:06;;;;;;;3.07;2.87;;;8.40;1.00;;;;;;5106003;27;20900;-71
2021/05/07 10:16:32;;;;;;;3.10;2.80;;;8.60;1.00;;;;;;5105147;27;20486;-71
2021/05/07 10:19:11;;;;;;;3.40;2.63;;;8.30;1.00;;;;;;5103515;27;20626;-71
2021/05/07 10:21:41;;;;;;;3.83;2.20;;;8.10;1.00;;;;;;5107315;27;20511;-70
2021/05/07 10:24:10;;;;;;;3.17;2.57;;;8.00;1.00;;;;;;5105350;27;20449;-70
2021/05/07 10:26:43;;;;;;;2.63;2.43;;;8.40;1.00;;;;;;5090820;27;20457;-70
2021/05/07 10:29:23;;;;;;;3.80;2.60;;;8.80;1.00;;;;;;5100925;27;20438;-71
2021/05/07 10:31:50;;;;;;;3.90;2.77;;;9.10;1.00;;;;;;5106467;27;20456;-70
2021/05/07 10:34:17;;;;;;;3.00;2.10;;;9.40;1.00;;;;;;5095404;27;20476;-70
2021/05/07 10:36:44;;;;;;;3.30;2.47;;;9.30;1.00;;;;;;5097145;27;20461;-70
2021/05/07 10:39:28;;;;;;;2.50;2.30;;;9.00;1.00;;;;;;5096361;27;21540;-70
2021/05/07 10:41:55;;;;;;;3.40;2.93;;;8.60;1.00;;;;;;5078848;27;20439;-71
2021/05/07 10:44:23;;;;;;;5.63;3.53;;;8.40;1.00;;;;;;5096647;27;21167;-71
2021/05/07 10:47:06;;;;;;;4.37;3.27;;;8.30;1.00;;;;;;5112857;27;20509;-70
2021/05/07 10:49:32;;;;;;;7.30;3.40;;;8.30;1.00;;;;;;5118028;27;20437;-71
2021/05/07 10:51:59;;;;;;;5.27;2.63;;;8.40;1.00;;;;;;5116630;27;20462;-71
2021/05/07 10:54:35;;;;;;;3.17;2.30;;;8.50;1.00;;;;;;5113092;27;20505;-71
2021/05/07 10:57:00;;;;;;;2.90;2.47;;;8.50;1.00;;;;;;5098999;27;20444;-70
2021/05/07 10:59:26;;;;;;;3.50;2.83;;;8.50;1.00;;;;;;5100984;27;20587;-71
2021/05/07 11:02:03;;;;;;;3.40;2.20;;;8.40;1.00;;;;;;5099591;27;20188;-70
2021/05/07 11:04:45;;;;;;;3.10;2.20;;;8.30;1.00;;;;;;5095793;27;20192;-71
2021/05/07 11:07:11;;;;;;;2.23;2.03;;;8.10;1.00;;;;;;5097643;27;20797;-71
2021/05/07 11:09:36;;;;;;;3.37;2.80;;;8.10;1.00;;;;;;5096065;27;21105;-71
2021/05/07 11:12:03;;;;;;;3.50;2.37;;;8.00;1.00;;;;;;5097865;27;20202;-70
2021/05/07 11:14:34;;;;;;;2.90;2.43;;;7.90;1.00;;;;;;5094761;27;20448;-70
2021/05/07 11:17:02;;;;;;;3.10;2.80;;;7.90;1.00;;;;;;5097867;27;20930;-71
2021/05/07 11:19:30;;;;;;;4.73;2.80;;;7.80;1.00;;;;;;5097860;27;20454;-71
2021/05/07 11:22:04;;;;;;;4.50;2.30;;;7.80;1.00;;;;;;5093636;27;20458;-71
2021/05/07 11:24:36;;;;;;;3.13;2.63;;;7.80;1.00;;;;;;5092310;27;20449;-71
2021/05/07 11:27:25;;;;;;;3.27;2.57;;;7.90;1.00;;;;;;5061856;27;20570;-71
2021/05/07 11:29:52;;;;;;;3.10;2.80;;;8.20;1.00;;;;;;5099142;27;20454;-71
2021/05/07 11:32:23;;;;;;;4.93;3.17;;;8.70;1.00;;;;;;5078541;27;20451;-71
2021/05/07 11:34:55;;;;;;;4.17;3.13;;;8.90;1.00;;;;;;5095081;27;20556;-71
2021/05/07 11:37:22;;;;;;;3.20;2.90;;;9.00;1.00;;;;;;5095982;27;20526;-72
2021/05/07 11:40:04;;;;;;;5.43;2.90;;;9.10;1.00;;;;;;5097790;27;20556;-71
2021/05/07 11:42:41;;;;;;;4.23;3.33;;;9.00;1.00;;;;;;5096149;27;20450;-71
2021/05/07 11:45:19;;;;;;;3.87;2.90;;;9.30;1.00;;;;;;5095040;27;20458;-71
2021/05/07 11:47:46;;;;;;;5.10;2.70;;;9.60;1.00;;;;;;5096274;27;20453;-71
2021/05/07 11:50:13;;;;;;;5.10;2.83;;;10.00;1.00;;;;;;5096487;27;20475;-71
2021/05/07 11:52:41;;;;;;;3.37;2.80;;;10.10;1.00;;;;;;5095473;27;20453;-71
2021/05/07 11:55:10;;;;;;;3.30;2.23;;;10.20;1.00;;;;;;5094681;27;20495;-72
2021/05/07 11:57:36;;;;;;;5.03;2.90;;;9.80;1.00;;;;;;5096450;27;20995;-72
2021/05/07 12:00:04;;;;;;;4.50;3.20;;;9.80;1.00;;;;;;5102741;27;21541;-71
2021/05/07 12:02:32;;;;;;;3.23;2.70;;;10.00;1.00;;;;;;5098159;27;20946;-71
2021/05/07 12:04:58;;;;;;;3.63;2.90;;;9.60;1.00;;;;;;5095879;27;20957;-71
2021/05/07 12:07:35;;;;;;;3.30;3.00;;;9.20;1.00;;;;;;5099357;27;20468;-72
2021/05/07 12:10:02;;;;;;;3.47;2.80;;;9.00;1.00;;;;;;5103453;27;20458;-71
2021/05/07 12:12:39;;;;;;;3.50;2.63;;;8.90;1.00;;;;;;5099160;27;20447;-71
2021/05/07 12:15:10;;;;;;;3.97;3.40;;;9.00;1.00;;;;;;5095527;27;20573;-71
2021/05/07 12:17:47;;;;;;;5.73;3.40;;;9.10;1.00;;;;;;5095317;27;20442;-71
2021/05/07 12:20:19;;;;;;;3.70;3.00;;;9.30;1.00;;;;;;5092710;27;20534;-71
2021/05/07 12:22:46;;;;;;;4.93;2.73;;;9.50;1.00;;;;;;5093924;27;20451;-71
2021/05/07 12:25:13;;;;;;;3.90;2.80;;;9.70;1.00;;;;;;5095872;27;20447;-71
2021/05/07 12:27:40;;;;;;;3.80;2.93;;;9.90;1.00;;;;;;5096306;27;20442;-71
2021/05/07 12:30:28;;;;;;;4.87;3.50;;;10.10;1.00;;;;;;5096267;27;20576;-72
2021/05/07 12:33:06;;;;;;;7.30;3.40;;;10.10;1.00;;;;;;5093811;27;21175;-71
2021/05/07 12:35:43;;;;;;;6.30;2.87;;;9.90;1.00;;;;;;5087326;27;20509;-71
2021/05/07 12:38:23;;;;;;;4.87;2.53;;;10.00;1.00;;;;;;5090398;27;20552;-72
2021/05/07 12:40:53;;;;;;;2.83;2.17;;;10.30;1.00;;;;;;5088596;27;20441;-71
2021/05/07 12:43:19;;;;;;;3.20;2.07;;;10.60;1.00;;;;;;5093699;27;20446;-72
2021/05/07 12:45:47;;;;;;;3.10;2.10;;;10.20;1.00;;;;;;5096150;27;20572;-71
2021/05/07 12:48:14;;;;;;;2.73;2.30;;;10.20;1.00;;;;;;5095733;27;22789;-71
2021/05/07 12:50:40;;;;;;;3.20;2.30;;;10.50;1.00;;;;;;5094708;27;20454;-71
2021/05/07 12:53:11;;;;;;;3.00;2.50;;;10.70;1.00;;;;;;5097303;27;20454;-71
2021/05/07 12:55:38;;;;;;;5.30;3.10;;;11.10;1.00;;;;;;5074768;27;20491;-71